Obar, New Mexico
Current Conditions -  °F | °C
As of 5:53 PM on Monday 26 Jan 2015 (Local Time) from KTCC Reporting Station
Clear Clear  
Wind Chill: 55°   Ceiling: Unl
Heat Index: 55°   Visibility: 10mi
Dew Point: 36°   Wind: 6mph
Humidity: 49%   Direction: 230°SW
Pressure: 30.25"   Gusts: NA
Location:  35.54°N, 103.2°W
Report Text: KTCC 270053Z AUTO 23005KT 10SM CLR 13/02 A3025 RMK AO2 SLP233 T01280022
Loading
Personal Weather Stations






























Interactive Weather Map New forecast layout! Learn more

10-Day Weather Forecast

Advertisements
Track Severe Weather on mobile